Austin, Texas
Traffic Map
Current Weather Conditions
Austin, Texas
Overcast
Overcast
56°
Feels Like: 56°
Wind Chill: 56° Ceiling: 900
Heat Index: 56° Visibility: 8mi
Dew Point: 53° Wind: 7mph
Humidity: 90% Direction: 200° (SSW)
Pressure: 29.83in Gusts: 0mph
Raw Report DataKATT 220651Z AUTO 20006KT 8SM OVC009 13/12 A2983 RMK AO2 SLP098 T01330117
Traffic Incident Summary
Active as of:
Severity:
Category:
InformationThere was an issue retrieving the traffic information for this location. Please try a different location or try again shortly.
Advertisements
Track Severe Weather on mobile